Time,TemperatureF,DewpointF,PressureIn,WindDirection,WindDirectionDegrees,WindSpeedMPH,WindSpeedGustMPH,Humidity,HourlyPrecipIn,Conditions,Clouds,dailyrainin,SoftwareType,DateUTC
2013-11-02 00:00:00,48.9,47.8,29.69,North,0,0.0,0.0,96,0.00,,---,0.00,VWS V14.01,2013-11-02 04:00:00,
2013-11-02 00:11:00,48.3,48.0,29.68,ESE,110,0.0,0.0,97,0.00,,,0.00,weatherlink.com 1.10,2013-11-02 04:11:00,
2013-11-02 00:26:00,47.8,47.0,29.68,ESE,110,0.0,-999.0,97,-99.99,,,0.00,weatherlink.com 1.10,2013-11-02 04:26:00,
2013-11-02 00:30:00,48.1,47.3,29.68,North,0,0.0,0.0,97,0.00,,---,0.00,VWS V14.01,2013-11-02 04:30:00,
2013-11-02 00:41:00,47.4,47.0,29.68,ESE,110,0.0,0.0,97,0.00,,,0.00,weatherlink.com 1.10,2013-11-02 04:41:00,
2013-11-02 00:56:00,47.1,46.0,29.68,ESE,110,0.0,0.0,97,0.00,,,0.00,weatherlink.com 1.10,2013-11-02 04:56:00,
2013-11-02 01:00:00,47.3,46.5,29.68,North,0,0.0,0.0,97,0.00,,---,0.00,VWS V14.01,2013-11-02 05:00:00,
2013-11-02 01:11:00,46.5,46.0,29.68,ESE,110,0.0,0.0,97,0.00,,,0.00,weatherlink.com 1.10,2013-11-02 05:11:00,
2013-11-02 01:26:00,45.8,45.0,29.68,ESE,110,0.0,0.0,97,0.00,,,0.00,weatherlink.com 1.10,2013-11-02 05:26:00,
2013-11-02 01:30:00,46.3,45.5,29.68,North,0,0.0,0.0,97,0.00,,---,0.00,VWS V14.01,2013-11-02 05:30:00,
2013-11-02 01:41:00,45.7,45.0,29.68,ESE,112,0.0,0.0,97,0.00,,,0.00,weatherlink.com 1.10,2013-11-02 05:41:00,
2013-11-02 01:56:00,45.6,45.0,29.68,ESE,111,0.0,0.0,97,0.00,,,0.00,weatherlink.com 1.10,2013-11-02 05:56:00,
2013-11-02 02:00:00,45.7,44.9,29.68,North,0,0.0,0.0,97,0.00,,---,0.00,VWS V14.01,2013-11-02 06:00:00,
2013-11-02 02:11:00,45.3,45.0,29.67,ESE,110,0.0,0.0,97,0.00,,,0.00,weatherlink.com 1.10,2013-11-02 06:11:00,
2013-11-02 02:26:00,44.9,44.0,29.67,ESE,110,0.0,0.0,97,0.00,,,0.00,weatherlink.com 1.10,2013-11-02 06:26:00,
2013-11-02 02:30:00,45.2,44.4,29.67,North,0,0.0,0.0,97,0.00,,---,0.00,VWS V14.01,2013-11-02 06:30:00,
2013-11-02 02:41:00,44.7,44.0,29.68,ESE,110,0.0,0.0,97,0.00,,,0.00,weatherlink.com 1.10,2013-11-02 06:41:00,
2013-11-02 02:56:00,44.3,44.0,29.67,ESE,110,0.0,0.0,97,0.00,,,0.00,weatherlink.com 1.10,2013-11-02 06:56:00,
2013-11-02 03:00:00,44.6,43.8,29.66,North,0,0.0,0.0,97,0.00,,---,0.00,VWS V14.01,2013-11-02 07:00:00,
2013-11-02 03:11:00,44.1,43.0,29.66,ESE,110,0.0,0.0,97,0.00,,,0.00,weatherlink.com 1.10,2013-11-02 07:11:00,
2013-11-02 03:26:00,43.8,43.0,29.66,ESE,110,0.0,0.0,97,0.00,,,0.00,weatherlink.com 1.10,2013-11-02 07:26:00,
2013-11-02 03:30:00,44.0,43.5,29.66,North,0,0.0,0.0,98,0.00,,---,0.00,VWS V14.01,2013-11-02 07:30:00,
2013-11-02 03:41:00,43.7,43.0,29.66,ESE,110,0.0,0.0,98,0.00,,,0.00,weatherlink.com 1.10,2013-11-02 07:41:00,
2013-11-02 03:56:00,44.3,44.0,29.66,NE,43,0.0,0.0,98,0.00,,,0.00,weatherlink.com 1.10,2013-11-02 07:56:00,
2013-11-02 04:00:00,44.0,43.5,29.66,North,0,0.0,0.0,98,0.00,,---,0.00,VWS V14.01,2013-11-02 08:00:00,
2013-11-02 04:11:00,44.7,44.0,29.67,NE,43,0.0,0.0,98,0.00,,,0.00,weatherlink.com 1.10,2013-11-02 08:11:00,
2013-11-02 04:26:00,45.0,45.0,29.67,NE,43,0.0,0.0,98,0.00,,,0.00,weatherlink.com 1.10,2013-11-02 08:26:00,
2013-11-02 04:30:00,44.8,44.3,29.67,North,0,0.0,0.0,98,0.00,,---,0.00,VWS V14.01,2013-11-02 08:30:00,
2013-11-02 04:41:00,45.2,45.0,29.66,NE,43,0.0,0.0,98,0.00,,,0.00,weatherlink.com 1.10,2013-11-02 08:41:00,
2013-11-02 04:56:00,45.1,45.0,29.67,NE,43,0.0,0.0,98,0.00,,,0.00,weatherlink.com 1.10,2013-11-02 08:56:00,
2013-11-02 05:00:00,45.1,44.6,29.67,North,0,0.0,0.0,98,0.00,,---,0.00,VWS V14.01,2013-11-02 09:00:00,
2013-11-02 05:11:00,45.0,45.0,29.67,NE,43,0.0,0.0,98,0.00,,,0.00,weatherlink.com 1.10,2013-11-02 09:11:00,
2013-11-02 05:26:00,44.8,44.0,29.67,NE,43,0.0,0.0,98,0.00,,,0.00,weatherlink.com 1.10,2013-11-02 09:26:00,
2013-11-02 05:30:00,44.9,44.4,29.67,North,0,0.0,0.0,98,0.00,,---,0.00,VWS V14.01,2013-11-02 09:30:00,
2013-11-02 05:41:00,44.5,44.0,29.67,NE,43,0.0,0.0,98,0.00,,,0.00,weatherlink.com 1.10,2013-11-02 09:41:00,
2013-11-02 05:57:00,44.0,44.0,29.67,NE,42,0.0,0.0,98,0.00,,,0.00,weatherlink.com 1.10,2013-11-02 09:57:00,
2013-11-02 06:00:00,44.4,43.9,29.67,North,0,0.0,0.0,98,0.00,,---,0.00,VWS V14.01,2013-11-02 10:00:00,
2013-11-02 06:12:00,44.3,44.0,29.67,NE,43,0.0,0.0,98,0.00,,,0.00,weatherlink.com 1.10,2013-11-02 10:12:00,
2013-11-02 06:27:00,44.4,44.0,29.68,NE,42,0.0,0.0,98,0.00,,,0.00,weatherlink.com 1.10,2013-11-02 10:27:00,
2013-11-02 06:30:00,44.3,43.8,29.67,North,0,0.0,0.0,98,0.00,,---,0.00,VWS V14.01,2013-11-02 10:30:00,
2013-11-02 06:42:00,44.7,44.0,29.67,NE,43,0.0,0.0,98,0.00,,,0.00,weatherlink.com 1.10,2013-11-02 10:42:00,
2013-11-02 06:57:00,44.6,44.0,29.68,NE,43,0.0,0.0,98,0.00,,,0.00,weatherlink.com 1.10,2013-11-02 10:57:00,
2013-11-02 07:00:00,44.6,44.1,29.68,North,0,0.0,0.0,98,0.00,,---,0.00,VWS V14.01,2013-11-02 11:00:00,
2013-11-02 07:12:00,44.9,44.0,29.68,NE,43,0.0,0.0,98,0.00,,,0.00,weatherlink.com 1.10,2013-11-02 11:12:00,
2013-11-02 07:27:00,45.1,45.0,29.69,NE,43,0.0,0.0,98,0.00,,,0.00,weatherlink.com 1.10,2013-11-02 11:27:00,
2013-11-02 07:30:00,44.9,44.4,29.69,North,0,0.0,0.0,98,0.00,,---,0.00,VWS V14.01,2013-11-02 11:30:00,
2013-11-02 07:42:00,45.1,45.0,29.69,NE,43,0.0,0.0,98,0.00,,,0.00,weatherlink.com 1.10,2013-11-02 11:42:00,
2013-11-02 07:56:00,45.0,45.0,29.70,NE,43,0.0,0.0,98,0.00,,,0.00,weatherlink.com 1.10,2013-11-02 11:56:00,
2013-11-02 08:00:00,45.1,44.6,29.70,North,0,0.0,0.0,98,0.00,,---,0.00,VWS V14.01,2013-11-02 12:00:00,
2013-11-02 08:11:00,45.2,45.0,29.70,NE,42,0.0,0.0,98,0.00,,,0.00,weatherlink.com 1.10,2013-11-02 12:11:00,
2013-11-02 08:26:00,45.8,45.0,29.71,NE,42,0.0,0.0,98,0.00,,,0.00,weatherlink.com 1.10,2013-11-02 12:26:00,
2013-11-02 08:30:00,45.4,44.9,29.71,North,0,0.0,0.0,98,0.00,,---,0.00,VWS V14.01,2013-11-02 12:30:00,
2013-11-02 08:41:00,46.3,46.0,29.71,NE,43,0.0,0.0,98,0.00,,,0.00,weatherlink.com 1.10,2013-11-02 12:41:00,
2013-11-02 08:56:00,47.1,47.0,29.71,NE,43,0.0,0.0,98,0.00,,,0.00,weatherlink.com 1.10,2013-11-02 12:56:00,
2013-11-02 09:12:00,47.9,47.0,29.70,NE,43,0.0,0.0,98,0.00,,,0.00,weatherlink.com 1.10,2013-11-02 13:12:00,
2013-11-02 09:26:00,48.4,48.0,29.69,NE,43,0.0,0.0,98,0.00,,,0.00,weatherlink.com 1.10,2013-11-02 13:26:00,
2013-11-02 09:31:00,48.8,48.3,29.69,NE,43,0.0,0.0,98,0.00,,---,0.00,VWS V14.01,2013-11-02 13:31:00,
2013-11-02 09:36:00,49.0,48.2,29.70,NE,43,0.0,0.0,97,0.00,,---,0.00,VWS V14.01,2013-11-02 13:36:00,
2013-11-02 09:41:00,49.5,48.4,29.70,NE,43,0.0,0.0,96,0.00,,---,0.00,VWS V14.01,2013-11-02 13:41:00,
2013-11-02 09:46:00,50.1,49.0,29.70,NE,43,0.0,0.0,96,0.00,,---,0.00,VWS V14.01,2013-11-02 13:46:00,
2013-11-02 09:51:00,50.5,49.1,29.70,NE,42,0.0,0.0,95,0.00,,---,0.00,VWS V14.01,2013-11-02 13:51:00,
2013-11-02 09:56:00,51.1,49.2,29.70,NE,43,0.0,0.0,93,0.00,,---,0.00,VWS V14.01,2013-11-02 13:56:00,
2013-11-02 10:01:00,51.8,49.3,29.69,NE,43,0.0,0.0,91,0.00,,---,0.00,VWS V14.01,2013-11-02 14:01:00,
2013-11-02 10:06:00,52.4,49.3,29.69,NE,43,0.0,0.0,89,0.00,,---,0.00,VWS V14.01,2013-11-02 14:06:00,
2013-11-02 10:11:00,53.2,49.1,29.69,NNW,328,0.0,0.0,86,0.00,,---,0.00,VWS V14.01,2013-11-02 14:11:00,
2013-11-02 10:16:00,53.9,49.2,29.69,NNW,329,0.0,0.0,84,0.00,,---,0.00,VWS V14.01,2013-11-02 14:16:00,
2013-11-02 10:21:00,54.4,49.0,29.69,NNW,329,0.0,0.0,82,0.00,,---,0.00,VWS V14.01,2013-11-02 14:21:00,
2013-11-02 10:26:00,54.9,50.2,29.69,NNW,328,0.0,0.0,84,0.00,,---,0.00,VWS V14.01,2013-11-02 14:26:00,
2013-11-02 10:31:00,55.2,49.5,29.68,NNW,328,0.0,0.0,81,0.00,,---,0.00,VWS V14.01,2013-11-02 14:31:00,
2013-11-02 10:36:00,55.5,49.4,29.68,NNW,328,0.0,0.0,80,0.00,,---,0.00,VWS V14.01,2013-11-02 14:36:00,
2013-11-02 10:41:00,56.0,49.6,29.68,NNW,328,0.0,0.0,79,0.00,,---,0.00,VWS V14.01,2013-11-02 14:41:00,
2013-11-02 10:46:00,56.4,49.3,29.68,West,273,0.0,0.0,77,0.00,,---,0.00,VWS V14.01,2013-11-02 14:46:00,
2013-11-02 10:51:00,56.9,49.4,29.68,West,263,1.0,2.0,76,0.00,,---,0.00,VWS V14.01,2013-11-02 14:51:00,
2013-11-02 10:56:00,57.2,49.0,29.68,West,262,2.0,3.0,74,0.00,,---,0.00,VWS V14.01,2013-11-02 14:56:00,
2013-11-02 11:01:00,57.4,49.2,29.68,WSW,257,1.0,2.0,74,0.00,,---,0.00,VWS V14.01,2013-11-02 15:01:00,
2013-11-02 11:06:00,57.9,49.7,29.68,West,260,1.0,2.0,74,0.00,,---,0.00,VWS V14.01,2013-11-02 15:06:00,
2013-11-02 11:11:00,58.3,49.3,29.68,West,277,2.0,3.0,72,0.00,,---,0.00,VWS V14.01,2013-11-02 15:11:00,
2013-11-02 11:16:00,58.4,49.4,29.67,WNW,290,0.0,4.0,72,0.00,,---,0.00,VWS V14.01,2013-11-02 15:16:00,
2013-11-02 11:21:00,59.1,50.1,29.67,South,173,1.0,4.0,72,0.00,,---,0.00,VWS V14.01,2013-11-02 15:21:00,
2013-11-02 11:26:00,59.8,50.0,29.67,SSE,157,1.0,4.0,70,0.00,,---,0.00,VWS V14.01,2013-11-02 15:26:00,
2013-11-02 11:31:00,59.9,49.7,29.67,West,278,2.0,2.0,69,0.00,,---,0.00,VWS V14.01,2013-11-02 15:31:00,
2013-11-02 11:36:00,60.1,49.9,29.67,West,269,1.0,3.0,69,0.00,,---,0.00,VWS V14.01,2013-11-02 15:36:00,
2013-11-02 11:41:00,60.7,50.1,29.67,East,96,0.0,3.0,68,0.00,,---,0.00,VWS V14.01,2013-11-02 15:41:00,
2013-11-02 11:46:00,61.1,49.7,29.67,ESE,102,0.0,3.0,66,0.00,,---,0.00,VWS V14.01,2013-11-02 15:46:00,
2013-11-02 11:51:00,61.0,50.0,29.67,West,276,2.0,5.0,67,0.00,,---,0.00,VWS V14.01,2013-11-02 15:51:00,
2013-11-02 11:56:00,60.9,49.9,29.66,West,273,3.0,5.0,67,0.00,,---,0.00,VWS V14.01,2013-11-02 15:56:00,
2013-11-02 12:01:00,60.9,49.9,29.67,West,268,2.0,3.0,67,0.00,,---,0.00,VWS V14.01,2013-11-02 16:01:00,
2013-11-02 12:06:00,61.3,49.5,29.67,West,269,1.0,4.0,65,0.00,,---,0.00,VWS V14.01,2013-11-02 16:06:00,
2013-11-02 12:11:00,61.4,49.5,29.66,SSE,162,0.0,5.0,65,0.00,,---,0.00,VWS V14.01,2013-11-02 16:11:00,
2013-11-02 12:16:00,61.8,49.5,29.66,WNW,290,1.0,5.0,64,0.00,,---,0.00,VWS V14.01,2013-11-02 16:16:00,
2013-11-02 12:21:00,62.3,49.1,29.66,SSE,152,2.0,5.0,62,0.00,,---,0.00,VWS V14.01,2013-11-02 16:21:00,
2013-11-02 12:26:00,62.9,47.5,29.66,SW,229,0.0,5.0,57,0.00,,---,0.00,VWS V14.01,2013-11-02 16:26:00,
2013-11-02 12:31:00,63.2,48.2,29.66,WNW,302,1.0,5.0,58,0.00,,---,0.00,VWS V14.01,2013-11-02 16:31:00,
2013-11-02 12:36:00,63.2,48.2,29.66,West,271,4.0,5.0,58,0.00,,---,0.00,VWS V14.01,2013-11-02 16:36:00,
2013-11-02 12:41:00,63.2,47.3,29.66,WSW,253,1.0,5.0,56,0.00,,---,0.00,VWS V14.01,2013-11-02 16:41:00,
2013-11-02 12:46:00,63.1,47.2,29.66,WSW,241,2.0,5.0,56,0.00,,---,0.00,VWS V14.01,2013-11-02 16:46:00,
2013-11-02 12:51:00,63.4,45.5,29.66,West,266,1.0,5.0,52,0.00,,---,0.00,VWS V14.01,2013-11-02 16:51:00,
2013-11-02 12:56:00,63.7,45.2,29.65,SSE,148,1.0,5.0,51,0.00,,---,0.00,VWS V14.01,2013-11-02 16:56:00,
2013-11-02 13:01:00,64.4,44.8,29.65,West,261,0.0,1.0,49,0.00,,---,0.00,VWS V14.01,2013-11-02 17:01:00,
2013-11-02 13:06:00,65.0,45.4,29.65,West,276,3.0,5.0,49,0.00,,---,0.00,VWS V14.01,2013-11-02 17:06:00,
2013-11-02 13:11:00,65.0,46.5,29.65,WNW,295,1.0,5.0,51,0.00,,---,0.00,VWS V14.01,2013-11-02 17:11:00,
2013-11-02 13:16:00,65.3,46.7,29.65,West,263,1.0,5.0,51,0.00,,---,0.00,VWS V14.01,2013-11-02 17:16:00,
2013-11-02 13:21:00,65.5,45.8,29.64,WSW,253,1.0,5.0,49,0.00,,---,0.00,VWS V14.01,2013-11-02 17:21:00,
2013-11-02 13:26:00,65.9,46.2,29.64,ESE,122,3.0,5.0,49,0.00,,---,0.00,VWS V14.01,2013-11-02 17:26:00,
2013-11-02 13:31:00,66.4,45.6,29.64,West,274,4.0,5.0,47,0.00,,---,0.00,VWS V14.01,2013-11-02 17:31:00,
2013-11-02 13:36:00,66.0,45.2,29.64,West,276,0.0,6.0,47,0.00,,---,0.00,VWS V14.01,2013-11-02 17:36:00,
2013-11-02 13:41:00,66.2,46.5,29.64,West,277,4.0,6.0,49,0.00,,---,0.00,VWS V14.01,2013-11-02 17:41:00,
2013-11-02 13:46:00,66.3,46.6,29.64,SE,145,0.0,7.0,49,0.00,,---,0.00,VWS V14.01,2013-11-02 17:46:00,
2013-11-02 13:51:00,66.9,46.6,29.64,West,259,1.0,7.0,48,0.00,,---,0.00,VWS V14.01,2013-11-02 17:51:00,
2013-11-02 13:56:00,66.7,46.4,29.63,West,278,3.0,7.0,48,0.00,,---,0.00,VWS V14.01,2013-11-02 17:56:00,
2013-11-02 14:01:00,66.6,46.3,29.63,SSW,204,1.0,7.0,48,0.00,,---,0.00,VWS V14.01,2013-11-02 18:01:00,
2013-11-02 14:06:00,66.4,46.1,29.63,WNW,286,1.0,3.0,48,0.00,,---,0.00,VWS V14.01,2013-11-02 18:06:00,
2013-11-02 14:11:00,66.3,46.0,29.63,West,262,6.0,6.0,48,0.00,,---,0.00,VWS V14.01,2013-11-02 18:11:00,
2013-11-02 14:16:00,65.8,46.1,29.63,WNW,288,0.0,6.0,49,0.00,,---,0.00,VWS V14.01,2013-11-02 18:16:00,
2013-11-02 14:21:00,65.7,46.6,29.63,West,260,1.0,6.0,50,0.00,,---,0.00,VWS V14.01,2013-11-02 18:21:00,
2013-11-02 14:26:00,65.8,47.2,29.63,SW,229,0.0,6.0,51,0.00,,---,0.00,VWS V14.01,2013-11-02 18:26:00,
2013-11-02 14:31:00,65.7,46.6,29.64,West,273,3.0,6.0,50,0.00,,---,0.00,VWS V14.01,2013-11-02 18:31:00,
2013-11-02 14:36:00,65.1,46.5,29.64,SE,138,2.0,7.0,51,0.00,,---,0.00,VWS V14.01,2013-11-02 18:36:00,
2013-11-02 14:41:00,64.9,45.8,29.63,WSW,243,1.0,7.0,50,0.00,,---,0.00,VWS V14.01,2013-11-02 18:41:00,
2013-11-02 14:46:00,64.9,46.4,29.63,NW,309,0.0,7.0,51,0.00,,---,0.00,VWS V14.01,2013-11-02 18:46:00,
2013-11-02 14:51:00,64.8,46.3,29.63,West,280,2.0,7.0,51,0.00,,---,0.00,VWS V14.01,2013-11-02 18:51:00,
2013-11-02 14:56:00,64.7,46.2,29.63,WSW,256,0.0,7.0,51,0.00,,---,0.00,VWS V14.01,2013-11-02 18:56:00,
2013-11-02 15:01:00,64.6,45.6,29.63,West,270,7.0,9.0,50,0.00,,---,0.00,VWS V14.01,2013-11-02 19:01:00,
2013-11-02 15:06:00,64.6,45.6,29.63,WNW,285,4.0,8.0,50,0.00,,---,0.00,VWS V14.01,2013-11-02 19:06:00,
2013-11-02 15:11:00,64.6,45.0,29.64,West,271,4.0,8.0,49,0.00,,---,0.00,VWS V14.01,2013-11-02 19:11:00,
2013-11-02 15:16:00,64.5,44.9,29.63,WSW,250,2.0,8.0,49,0.00,,---,0.00,VWS V14.01,2013-11-02 19:16:00,
2013-11-02 15:21:00,64.6,45.0,29.64,West,263,7.0,8.0,49,0.00,,---,0.00,VWS V14.01,2013-11-02 19:21:00,
2013-11-02 15:26:00,64.6,45.0,29.63,North,352,3.0,9.0,49,0.00,,---,0.00,VWS V14.01,2013-11-02 19:26:00,
2013-11-02 15:31:00,64.9,44.8,29.63,SW,236,3.0,9.0,48,0.00,,---,0.00,VWS V14.01,2013-11-02 19:31:00,
2013-11-02 15:36:00,65.1,44.9,29.64,West,261,1.0,8.0,48,0.00,,---,0.00,VWS V14.01,2013-11-02 19:36:00,
2013-11-02 15:41:00,65.4,44.7,29.64,WSW,247,8.0,9.0,47,0.00,,---,0.00,VWS V14.01,2013-11-02 19:41:00,
2013-11-02 15:46:00,64.9,44.8,29.64,WSW,258,4.0,10.0,48,0.00,,---,0.00,VWS V14.01,2013-11-02 19:46:00,
2013-11-02 15:51:00,64.5,44.4,29.64,West,280,5.0,10.0,48,0.00,,---,0.00,VWS V14.01,2013-11-02 19:51:00,
2013-11-02 15:56:00,64.3,44.8,29.64,SW,235,2.0,12.0,49,0.00,,---,0.00,VWS V14.01,2013-11-02 19:56:00,
2013-11-02 16:01:00,64.1,44.6,29.64,West,266,4.0,12.0,49,0.00,,---,0.00,VWS V14.01,2013-11-02 20:01:00,
2013-11-02 16:06:00,63.9,44.4,29.64,WNW,282,4.0,8.0,49,0.00,,---,0.00,VWS V14.01,2013-11-02 20:06:00,
2013-11-02 16:11:00,63.9,44.4,29.64,West,273,3.0,10.0,49,0.00,,---,0.00,VWS V14.01,2013-11-02 20:11:00,
2013-11-02 16:16:00,63.9,44.9,29.64,West,276,5.0,10.0,50,0.00,,---,0.00,VWS V14.01,2013-11-02 20:16:00,
2013-11-02 16:21:00,63.8,44.3,29.65,West,271,3.0,10.0,49,0.00,,---,0.00,VWS V14.01,2013-11-02 20:21:00,
2013-11-02 16:26:00,63.7,44.2,29.65,WNW,285,7.0,10.0,49,0.00,,---,0.00,VWS V14.01,2013-11-02 20:26:00,
2013-11-02 16:31:00,63.5,44.5,29.65,SSE,150,3.0,10.0,50,0.00,,---,0.00,VWS V14.01,2013-11-02 20:31:00,
2013-11-02 16:36:00,63.4,44.5,29.65,WNW,287,6.0,10.0,50,0.00,,---,0.00,VWS V14.01,2013-11-02 20:36:00,
2013-11-02 16:41:00,63.1,45.7,29.65,WSW,242,4.0,10.0,53,0.00,,---,0.00,VWS V14.01,2013-11-02 20:41:00,
2013-11-02 16:46:00,62.1,46.7,29.66,WNW,293,3.0,10.0,57,0.00,,---,0.00,VWS V14.01,2013-11-02 20:46:00,
2013-11-02 16:51:00,61.5,47.1,29.66,West,259,1.0,10.0,59,0.00,,---,0.00,VWS V14.01,2013-11-02 20:51:00,
2013-11-02 16:56:00,60.8,46.4,29.66,WNW,285,5.0,10.0,59,0.00,,---,0.00,VWS V14.01,2013-11-02 20:56:00,
2013-11-02 17:01:00,60.5,45.7,29.67,NW,323,4.0,10.0,58,0.00,,---,0.00,VWS V14.01,2013-11-02 21:01:00,
2013-11-02 17:06:00,60.3,45.5,29.67,NW,305,4.0,7.0,58,0.00,,---,0.00,VWS V14.01,2013-11-02 21:06:00,
2013-11-02 17:11:00,60.3,45.5,29.67,WSW,250,1.0,7.0,58,0.00,,---,0.00,VWS V14.01,2013-11-02 21:11:00,
2013-11-02 17:16:00,60.2,45.8,29.67,West,260,1.0,7.0,59,0.00,,---,0.00,VWS V14.01,2013-11-02 21:16:00,
2013-11-02 17:21:00,60.2,45.4,29.67,WSW,250,2.0,7.0,58,0.00,,---,0.00,VWS V14.01,2013-11-02 21:21:00,
2013-11-02 17:26:00,60.3,45.9,29.67,WNW,284,0.0,7.0,59,0.00,,---,0.00,VWS V14.01,2013-11-02 21:26:00,
2013-11-02 17:31:00,60.3,45.5,29.67,North,9,4.0,7.0,58,0.00,,---,0.00,VWS V14.01,2013-11-02 21:31:00,
2013-11-02 17:36:00,60.2,44.5,29.67,WNW,283,1.0,4.0,56,0.00,,---,0.00,VWS V14.01,2013-11-02 21:36:00,
2013-11-02 17:40:00,60.2,42.5,29.67,NW,317,3.0,5.0,52,0.00,,---,0.00,VWS V14.01,2013-11-02 21:40:00,
2013-11-02 17:45:00,60.3,42.6,29.68,NW,316,1.0,6.0,52,0.00,,---,0.00,VWS V14.01,2013-11-02 21:45:00,
2013-11-02 17:50:00,60.1,42.4,29.68,SW,226,2.0,6.0,52,0.00,,---,0.00,VWS V14.01,2013-11-02 21:50:00,
2013-11-02 17:55:00,60.0,42.3,29.68,WNW,282,1.0,6.0,52,0.00,,---,0.00,VWS V14.01,2013-11-02 21:55:00,
2013-11-02 18:00:00,59.9,41.2,29.69,West,277,1.0,6.0,50,0.00,,---,0.00,VWS V14.01,2013-11-02 22:00:00,
2013-11-02 18:05:00,60.0,41.8,29.69,WNW,284,0.0,4.0,51,0.00,,---,0.00,VWS V14.01,2013-11-02 22:05:00,
2013-11-02 18:10:00,59.7,41.6,29.69,ENE,73,0.0,4.0,51,0.00,,---,0.00,VWS V14.01,2013-11-02 22:10:00,
2013-11-02 18:15:00,59.5,40.9,29.69,West,266,2.0,5.0,50,0.00,,---,0.00,VWS V14.01,2013-11-02 22:15:00,
2013-11-02 18:20:00,59.6,42.0,29.70,WNW,283,1.0,5.0,52,0.00,,---,0.00,VWS V14.01,2013-11-02 22:20:00,
2013-11-02 18:25:00,59.5,40.9,29.70,West,271,0.0,5.0,50,0.00,,---,0.00,VWS V14.01,2013-11-02 22:25:00,
2013-11-02 18:30:00,59.3,40.7,29.70,West,275,0.0,5.0,50,0.00,,---,0.00,VWS V14.01,2013-11-02 22:30:00,
2013-11-02 18:35:00,59.1,42.5,29.70,West,275,0.0,0.0,54,0.00,,---,0.00,VWS V14.01,2013-11-02 22:35:00,
2013-11-02 18:40:00,58.7,41.6,29.70,West,275,0.0,0.0,53,0.00,,---,0.00,VWS V14.01,2013-11-02 22:40:00,
2013-11-02 18:45:00,58.1,42.0,29.71,SSE,160,0.0,0.0,55,0.00,,---,0.00,VWS V14.01,2013-11-02 22:45:00,
2013-11-02 18:50:00,57.5,41.9,29.71,SSE,162,0.0,0.0,56,0.00,,---,0.00,VWS V14.01,2013-11-02 22:50:00,
2013-11-02 18:55:00,57.0,41.5,29.71,SW,234,0.0,0.0,56,0.00,,---,0.00,VWS V14.01,2013-11-02 22:55:00,
2013-11-02 19:00:00,57.3,41.3,29.72,WNW,298,0.0,5.0,55,0.00,,---,0.00,VWS V14.01,2013-11-02 23:00:00,
2013-11-02 19:05:00,57.2,41.2,29.72,West,269,0.0,3.0,55,0.00,,---,0.00,VWS V14.01,2013-11-02 23:05:00,
2013-11-02 19:10:00,57.2,40.2,29.72,WNW,298,1.0,3.0,53,0.00,,---,0.00,VWS V14.01,2013-11-02 23:10:00,
2013-11-02 19:15:00,57.0,42.8,29.72,WNW,287,0.0,3.0,59,0.00,,---,0.00,VWS V14.01,2013-11-02 23:15:00,
2013-11-02 19:20:00,56.5,42.4,29.73,West,273,0.0,3.0,59,0.00,,---,0.00,VWS V14.01,2013-11-02 23:20:00,
2013-11-02 19:25:00,55.8,41.7,29.73,WSW,256,0.0,3.0,59,0.00,,---,0.00,VWS V14.01,2013-11-02 23:25:00,
2013-11-02 19:30:00,55.0,42.7,29.73,WNW,287,0.0,3.0,63,0.00,,---,0.00,VWS V14.01,2013-11-02 23:30:00,
2013-11-02 19:35:00,54.4,41.2,29.73,SE,145,0.0,1.0,61,0.00,,---,0.00,VWS V14.01,2013-11-02 23:35:00,
2013-11-02 19:40:00,54.1,41.4,29.73,SE,145,0.0,1.0,62,0.00,,---,0.00,VWS V14.01,2013-11-02 23:40:00,
2013-11-02 19:45:00,53.9,41.2,29.73,SE,145,0.0,1.0,62,0.00,,---,0.00,VWS V14.01,2013-11-02 23:45:00,
2013-11-02 19:50:00,53.6,41.7,29.73,SE,142,0.0,1.0,64,0.00,,---,0.00,VWS V14.01,2013-11-02 23:50:00,
2013-11-02 19:55:00,53.2,41.8,29.73,SE,143,0.0,1.0,65,0.00,,---,0.00,VWS V14.01,2013-11-02 23:55:00,
2013-11-02 20:00:00,52.7,42.8,29.73,SE,143,0.0,1.0,69,0.00,,---,0.00,VWS V14.01,2013-11-03 00:00:00,
2013-11-02 20:05:00,52.1,41.9,29.74,SE,143,0.0,0.0,68,0.00,,---,0.00,VWS V14.01,2013-11-03 00:05:00,
2013-11-02 20:10:00,51.6,41.0,29.74,SE,143,0.0,0.0,67,0.00,,---,0.00,VWS V14.01,2013-11-03 00:10:00,
2013-11-02 20:15:00,51.1,40.9,29.74,SE,144,0.0,0.0,68,0.00,,---,0.00,VWS V14.01,2013-11-03 00:15:00,
2013-11-02 20:20:00,50.8,41.8,29.74,SE,145,0.0,1.0,71,0.00,,---,0.00,VWS V14.01,2013-11-03 00:20:00,
2013-11-02 20:25:00,50.3,40.9,29.74,WNW,295,0.0,1.0,70,0.00,,---,0.00,VWS V14.01,2013-11-03 00:25:00,
2013-11-02 20:30:00,51.0,40.4,29.75,NW,316,1.0,3.0,67,0.00,,---,0.00,VWS V14.01,2013-11-03 00:30:00,
2013-11-02 20:35:00,52.1,39.5,29.75,West,263,0.0,3.0,62,0.00,,---,0.00,VWS V14.01,2013-11-03 00:35:00,
2013-11-02 20:40:00,52.5,39.9,29.75,West,271,1.0,3.0,62,0.00,,---,0.00,VWS V14.01,2013-11-03 00:40:00,
2013-11-02 20:45:00,52.7,41.3,29.75,West,267,0.0,3.0,65,0.00,,---,0.00,VWS V14.01,2013-11-03 00:45:00,
2013-11-02 20:50:00,52.0,40.2,29.76,WNW,282,1.0,3.0,64,0.00,,---,0.00,VWS V14.01,2013-11-03 00:50:00,
2013-11-02 20:55:00,51.8,40.4,29.76,West,259,0.0,3.0,65,0.00,,---,0.00,VWS V14.01,2013-11-03 00:55:00,
2013-11-02 21:00:00,51.9,41.7,29.76,WNW,300,0.0,3.0,68,0.00,,---,0.00,VWS V14.01,2013-11-03 01:00:00,
2013-11-02 21:05:00,51.5,40.5,29.76,West,268,0.0,1.0,66,0.00,,---,0.00,VWS V14.01,2013-11-03 01:05:00,
2013-11-02 21:10:00,51.1,40.9,29.76,West,263,0.0,1.0,68,0.00,,---,0.00,VWS V14.01,2013-11-03 01:10:00,
2013-11-02 21:15:00,50.5,40.7,29.76,WNW,287,0.0,1.0,69,0.00,,---,0.00,VWS V14.01,2013-11-03 01:15:00,
2013-11-02 21:20:00,50.0,40.2,29.76,West,265,1.0,2.0,69,0.00,,---,0.00,VWS V14.01,2013-11-03 01:20:00,
2013-11-02 21:25:00,49.8,39.7,29.76,WNW,301,0.0,2.0,68,0.00,,---,0.00,VWS V14.01,2013-11-03 01:25:00,
2013-11-02 21:30:00,50.3,40.2,29.76,West,264,1.0,2.0,68,0.00,,---,0.00,VWS V14.01,2013-11-03 01:30:00,
2013-11-02 21:35:00,50.5,40.0,29.76,West,264,2.0,2.0,67,0.00,,---,0.00,VWS V14.01,2013-11-03 01:35:00,
2013-11-02 21:40:00,50.5,39.6,29.77,West,273,0.0,2.0,66,0.00,,---,0.00,VWS V14.01,2013-11-03 01:40:00,
2013-11-02 21:45:00,50.7,40.9,29.77,WNW,291,0.0,2.0,69,0.00,,---,0.00,VWS V14.01,2013-11-03 01:45:00,
2013-11-02 21:50:00,50.3,40.5,29.77,WNW,291,0.0,2.0,69,0.00,,---,0.00,VWS V14.01,2013-11-03 01:50:00,
2013-11-02 21:55:00,49.7,40.7,29.77,WNW,290,0.0,2.0,71,0.00,,---,0.00,VWS V14.01,2013-11-03 01:55:00,
2013-11-02 22:00:00,49.3,41.4,29.77,WNW,290,0.0,2.0,74,0.00,,---,0.00,VWS V14.01,2013-11-03 02:00:00,
2013-11-02 22:05:00,48.7,40.1,29.77,WNW,290,0.0,1.0,72,0.00,,---,0.00,VWS V14.01,2013-11-03 02:05:00,
2013-11-02 22:10:00,48.4,40.2,29.77,WNW,290,0.0,1.0,73,0.00,,---,0.00,VWS V14.01,2013-11-03 02:10:00,
2013-11-02 22:15:00,48.2,39.6,29.77,WNW,288,0.0,1.0,72,0.00,,---,0.00,VWS V14.01,2013-11-03 02:15:00,
2013-11-02 22:20:00,48.2,41.0,29.77,WSW,253,0.0,1.0,76,0.00,,---,0.00,VWS V14.01,2013-11-03 02:20:00,
2013-11-02 22:25:00,48.0,40.1,29.77,West,262,0.0,1.0,74,0.00,,---,0.00,VWS V14.01,2013-11-03 02:25:00,
2013-11-02 22:30:00,48.1,40.2,29.78,West,262,0.0,1.0,74,0.00,,---,0.00,VWS V14.01,2013-11-03 02:30:00,
2013-11-02 22:35:00,48.0,40.1,29.78,West,262,1.0,1.0,74,0.00,,---,0.00,VWS V14.01,2013-11-03 02:35:00,
2013-11-02 22:40:00,47.8,40.3,29.78,West,262,0.0,1.0,75,0.00,,---,0.00,VWS V14.01,2013-11-03 02:40:00,
2013-11-02 22:45:00,47.6,41.1,29.78,West,262,0.0,1.0,78,0.00,,---,0.00,VWS V14.01,2013-11-03 02:45:00,
2013-11-02 22:50:00,47.2,40.7,29.79,West,262,0.0,1.0,78,0.00,,---,0.00,VWS V14.01,2013-11-03 02:50:00,
2013-11-02 22:55:00,47.0,41.2,29.79,West,262,0.0,1.0,80,0.00,,---,0.00,VWS V14.01,2013-11-03 02:55:00,
2013-11-02 23:00:00,46.7,41.2,29.79,West,262,0.0,1.0,81,0.00,,---,0.00,VWS V14.01,2013-11-03 03:00:00,
2013-11-02 23:05:00,46.4,41.2,29.79,West,262,0.0,0.0,82,0.00,,---,0.00,VWS V14.01,2013-11-03 03:05:00,
2013-11-02 23:10:00,46.2,41.0,29.79,West,262,0.0,0.0,82,0.00,,---,0.00,VWS V14.01,2013-11-03 03:10:00,
2013-11-02 23:15:00,45.9,40.7,29.80,West,262,0.0,0.0,82,0.00,,---,0.00,VWS V14.01,2013-11-03 03:15:00,
2013-11-02 23:20:00,45.6,40.4,29.80,West,262,0.0,0.0,82,0.00,,---,0.00,VWS V14.01,2013-11-03 03:20:00,
2013-11-02 23:25:00,45.4,40.5,29.80,West,262,0.0,0.0,83,0.00,,---,0.00,VWS V14.01,2013-11-03 03:25:00,
2013-11-02 23:30:00,45.2,40.7,29.80,West,262,0.0,0.0,84,0.00,,---,0.00,VWS V14.01,2013-11-03 03:30:00,
2013-11-02 23:35:00,45.0,40.5,29.80,West,262,0.0,0.0,84,0.00,,---,0.00,VWS V14.01,2013-11-03 03:35:00,
2013-11-02 23:40:00,44.8,40.3,29.80,West,262,0.0,0.0,84,0.00,,---,0.00,VWS V14.01,2013-11-03 03:40:00,
2013-11-02 23:45:00,44.7,40.2,29.80,West,262,0.0,0.0,84,0.00,,---,0.00,VWS V14.01,2013-11-03 03:45:00,
2013-11-02 23:50:00,44.6,40.1,29.80,West,262,0.0,0.0,84,0.00,,---,0.00,VWS V14.01,2013-11-03 03:50:00,
2013-11-02 23:55:00,44.6,40.4,29.80,West,262,0.0,0.0,85,0.00,,---,0.00,VWS V14.01,2013-11-03 03:55:00,